Airfield :
LOGIN :

Register | Disclaimer

   EN    FR    IT 

 










Legend :    VFR   Marginal VFR   IFR   Intensive IFR   Very Intensive IFR
Visi :
Ceiling :
>= 8 km
>= 3000ft
5 to 8 km
1000 to 3000 ft
1500m to 5 km
500 to 1000 ft
800 to 1500m
200 to 500 ft
< 800m
< 200 ft
Symbols :   Thunderstorms  Fog  Heavy snow  Heavy precipitations  Wind > 20 kt
SIGMETs :     Misc.  Thunderstorms  Icing  Turbulence  Mountain Waves  Volcanic Ashes






- Airport Elevation : 53 ft
- IATA code : LBC


EDHL - Lübeck

CURRENT METAR :
  • 170120Z AUTO VRB02KT 9999 // BKN071/// BKN090/// 13/12 Q1009

EXPIRED METARs :
  • 170050Z AUTO 19003KT 150V270 9999 // FEW056/// BKN068/// BKN085/// 14/13 Q1009
  • 170020Z AUTO VRB03KT 9999 // FEW050/// BKN078/// OVC093/// 14/13 Q1010
  • 162350Z AUTO 18003KT 150V210 9999 // FEW041/// BKN094/// 14/13 Q1009
  • 162320Z AUTO VRB01KT 9999 // FEW041/// SCT093/// 13/12 Q1009
  • 162250Z AUTO 14003KT 110V180 9999 // FEW081/// SCT097/// 14/13 Q1009
  • 162220Z AUTO VRB01KT 9999 // SCT044/// BKN073/// OVC098/// 14/13 Q1009
  • 162150Z AUTO VRB02KT 9999 // OVC045/// 14/13 Q1009
  • 162120Z AUTO 16004KT 130V190 9999 // BKN047/// OVC071/// 14/13 Q1009

Expired Forecast.



MET'MAP, your aeronautical weather chart ! - Copyright ORBIFLY December 2007 - Disclaimer

ORBIFLY MET'MAP TEAM :

Programming & Development : Alexandra Zaïnal
Original concept : Baudouin d'Aumeries
Technical & hardware support : Manuel Goepfert
Assistance : Marc-Olivier Méhu




SOURCES & CREDITS :

   NOAA